Time;durP1;ratioP1;P1;durP2;ratioP2;P2;SDS_P1;SDS_P2;PMS_P1;PMS_P2;Temp;Humidity;BMP_temperature;BMP_pressure;BME280_temperature;BME280_humidity;BME280_pressure;Samples;Min_cycle;Max_cycle;Signal;HPM_P1;HPM_P2
2022/06/12 00:01:10;;;;;;;3.13;1.70;;;;;;;19.42;50.45;101918.16;4921322;28;97139;-47
2022/06/12 00:03:36;;;;;;;5.03;1.90;;;;;;;19.42;50.44;101922.97;4922267;28;97808;-46
2022/06/12 00:06:03;;;;;;;5.33;2.03;;;;;;;19.39;50.24;101916.44;4921248;28;96867;-46
2022/06/12 00:08:29;;;;;;;5.83;1.90;;;;;;;19.34;50.26;101920.03;4918936;28;97243;-47
2022/06/12 00:10:57;;;;;;;5.83;1.70;;;;;;;19.28;50.32;101921.34;4918097;28;96837;-51
2022/06/12 00:13:28;;;;;;;3.70;1.90;;;;;;;19.25;50.69;101925.94;4915891;28;97458;-46
2022/06/12 00:15:54;;;;;;;2.97;1.33;;;;;;;19.24;50.50;101929.25;4921253;28;100752;-46
2022/06/12 00:18:20;;;;;;;4.00;1.53;;;;;;;19.25;50.65;101941.91;4915290;28;97257;-46
2022/06/12 00:20:45;;;;;;;6.80;2.20;;;;;;;19.22;50.59;101937.38;4924256;28;97626;-46
2022/06/12 00:23:13;;;;;;;3.33;1.70;;;;;;;19.16;50.53;101943.00;4914066;28;96962;-47
2022/06/12 00:25:39;;;;;;;5.73;1.70;;;;;;;19.12;50.74;101948.13;4916187;28;98556;-47
2022/06/12 00:28:05;;;;;;;6.33;1.93;;;;;;;19.12;50.91;101950.16;4921991;28;97141;-46
2022/06/12 00:30:32;;;;;;;5.70;1.73;;;;;;;19.10;50.83;101949.91;4917225;28;97376;-47
2022/06/12 00:32:57;;;;;;;6.90;1.87;;;;;;;19.04;50.72;101949.97;4920493;28;96962;-47
2022/06/12 00:35:32;;;;;;;1.63;1.53;;;;;;;19.05;51.29;101959.84;4917549;28;97256;-47
2022/06/12 00:37:57;;;;;;;4.87;1.67;;;;;;;19.04;50.96;101954.78;4920064;28;97348;-46
2022/06/12 00:40:23;;;;;;;3.77;1.37;;;;;;;19.03;51.15;101965.19;4920340;28;96789;-47
2022/06/12 00:42:53;;;;;;;3.77;1.40;;;;;;;19.05;51.31;101956.28;4917624;28;96818;-46
2022/06/12 00:45:28;;;;;;;1.73;1.27;;;;;;;19.05;51.72;101954.25;4916801;28;101635;-46
2022/06/12 00:47:57;;;;;;;3.57;1.77;;;;;;;19.04;51.16;101957.56;4921115;28;101523;-47
2022/06/12 00:50:24;;;;;;;6.00;1.70;;;;;;;19.00;50.90;101960.63;4924879;28;97433;-46
2022/06/12 00:52:52;;;;;;;3.63;1.33;;;;;;;18.99;50.87;101955.56;4922707;28;97251;-46
2022/06/12 00:55:27;;;;;;;3.60;1.00;;;;;;;18.90;51.15;101951.09;4925994;28;97467;-47
2022/06/12 00:58:01;;;;;;;3.20;1.60;;;;;;;18.86;51.02;101953.41;4918926;28;97154;-46
2022/06/12 01:00:26;;;;;;;5.67;1.60;;;;;;;18.84;51.00;101950.38;4918949;28;97275;-47
2022/06/12 01:02:52;;;;;;;6.10;1.23;;;;;;;18.83;51.05;101948.84;4926201;28;96886;-47
2022/06/12 01:08:06;;;;;;;6.13;1.50;;;;;;;18.81;50.88;101953.44;4930206;28;97500;-47
2022/06/12 01:10:34;;;;;;;3.90;1.50;;;;;;;18.79;51.28;101953.97;4929480;28;97582;-48
2022/06/12 01:13:11;;;;;;;4.80;1.60;;;;;;;18.79;51.62;101959.53;4925450;28;97021;-47
2022/06/12 01:15:44;;;;;;;5.23;1.80;;;;;;;18.74;51.35;101957.53;4923119;28;98628;-47
2022/06/12 01:18:13;;;;;;;3.73;1.80;;;;;;;18.66;50.81;101943.41;4921639;28;98136;-47
2022/06/12 01:20:53;;;;;;;2.60;1.37;;;;;;;18.60;51.79;101939.91;4927885;28;96833;-47
2022/06/12 01:23:44;;;;;;;4.60;1.70;;;;;;;18.61;52.24;101937.84;4921437;28;97117;-46
2022/06/12 01:26:34;;;;;;;4.10;1.60;;;;;;;18.61;51.96;101940.66;4918713;28;102897;-46
2022/06/12 01:29:13;;;;;;;4.47;1.40;;;;;;;18.57;51.59;101942.94;4925668;28;101725;-46
2022/06/12 01:31:54;;;;;;;2.60;1.70;;;;;;;18.58;51.77;101938.91;4929986;28;97498;-47
2022/06/12 01:34:59;;;;;;;3.53;1.17;;;;;;;18.55;52.10;101939.94;4923353;28;96927;-49
2022/06/12 01:37:34;;;;;;;2.97;1.63;;;;;;;18.51;52.04;101934.63;4923306;28;103024;-47
2022/06/12 01:40:05;;;;;;;1.80;1.10;;;;;;;18.46;51.31;101934.66;4919855;28;97379;-47
2022/06/12 01:42:51;;;;;;;3.83;1.60;;;;;;;18.41;51.94;101932.66;4920570;28;97145;-47
2022/06/12 01:45:39;;;;;;;2.87;1.30;;;;;;;18.36;52.04;101927.88;4921733;28;97094;-47
2022/06/12 01:48:26;;;;;;;4.20;1.20;;;;;;;18.31;52.11;101923.84;4918683;28;102152;-48
2022/06/12 01:51:08;;;;;;;3.23;1.20;;;;;;;18.29;51.81;101912.44;4926333;28;100330;-47
2022/06/12 01:53:45;;;;;;;3.50;1.67;;;;;;;18.28;52.09;101915.75;4924136;28;100270;-47
2022/06/12 01:56:22;;;;;;;7.00;1.40;;;;;;;18.28;52.09;101922.06;4920580;28;97146;-47
2022/06/12 01:59:03;;;;;;;4.40;1.90;;;;;;;18.25;52.01;101922.34;4917900;28;98138;-46
2022/06/12 02:01:38;;;;;;;1.97;1.00;;;;;;;18.17;51.85;101908.22;4918683;28;100166;-47
2022/06/12 02:04:12;;;;;;;2.93;1.27;;;;;;;18.14;51.65;101914.81;4919444;28;97402;-47
2022/06/12 02:06:45;;;;;;;3.07;1.30;;;;;;;18.14;52.05;101920.38;4918944;28;97512;-48
2022/06/12 02:09:17;;;;;;;4.77;1.60;;;;;;;18.10;51.88;101911.56;4917229;28;98263;-48
2022/06/12 02:14:44;;;;;;;4.67;1.90;;;;;;;17.98;52.06;101916.41;4926175;28;97083;-47
2022/06/12 02:17:17;;;;;;;3.50;1.20;;;;;;;17.94;51.96;101924.28;4917734;28;96962;-47
2022/06/12 02:19:43;;;;;;;4.87;1.70;;;;;;;17.90;51.91;101909.13;4922053;28;101669;-47
2022/06/12 02:22:19;;;;;;;3.00;1.30;;;;;;;17.85;52.29;101907.88;4916787;28;97101;-47
2022/06/12 02:24:49;;;;;;;4.63;1.50;;;;;;;17.76;51.98;101908.16;4921426;28;97333;-47
2022/06/12 02:27:26;;;;;;;7.53;1.80;;;;;;;17.70;52.00;101912.22;4917664;28;97403;-47
2022/06/12 02:29:58;;;;;;;3.30;1.40;;;;;;;17.63;52.13;101907.94;4918498;28;100524;-47
2022/06/12 02:32:38;;;;;;;4.90;1.50;;;;;;;17.58;52.46;101913.53;4921953;28;101551;-47
2022/06/12 02:35:13;;;;;;;3.23;1.50;;;;;;;17.52;52.41;101912.78;4922772;28;97354;-47
2022/06/12 02:37:47;;;;;;;3.33;1.30;;;;;;;17.46;52.31;101907.22;4920815;28;97245;-45
2022/06/12 02:40:22;;;;;;;4.10;1.40;;;;;;;17.45;52.74;101904.94;4920416;28;97535;-46
2022/06/12 02:42:51;;;;;;;2.73;1.60;;;;;;;17.44;52.32;101912.53;4917690;28;97279;-48
2022/06/12 02:45:25;;;;;;;4.20;1.30;;;;;;;17.44;52.72;101906.97;4915189;28;96741;-47
2022/06/12 02:47:51;;;;;;;6.97;1.50;;;;;;;17.39;52.32;101898.63;4921035;28;97132;-46
2022/06/12 02:50:22;;;;;;;4.73;1.30;;;;;;;17.36;52.38;101917.09;4921138;28;97321;-46
2022/06/12 02:53:03;;;;;;;4.90;1.73;;;;;;;17.30;52.89;101899.66;4922317;28;96950;-46
2022/06/12 02:55:44;;;;;;;3.93;1.33;;;;;;;17.23;52.68;101900.19;4918052;28;96863;-46
2022/06/12 02:58:52;;;;;;;5.30;1.87;;;;;;;17.20;53.36;101899.19;4922155;28;97089;-45
2022/06/12 03:01:24;;;;;;;4.10;1.43;;;;;;;17.18;52.57;101906.50;4917300;28;100530;-46
2022/06/12 03:04:16;;;;;;;3.60;1.53;;;;;;;17.15;53.23;101896.38;4918885;28;101586;-46
2022/06/12 03:06:43;;;;;;;4.57;1.50;;;;;;;17.08;52.42;101892.09;4920527;28;97155;-46
2022/06/12 03:09:09;;;;;;;2.90;1.83;;;;;;;17.01;52.55;101892.63;4922384;28;96853;-47
2022/06/12 03:11:40;;;;;;;3.93;1.60;;;;;;;16.97;52.65;101891.38;4915991;28;97370;-46
2022/06/12 03:14:09;;;;;;;2.80;1.33;;;;;;;16.96;52.83;101889.84;4921768;28;98543;-51
2022/06/12 03:16:37;;;;;;;1.63;1.40;;;;;;;16.97;52.86;101896.94;4920215;28;102669;-48
2022/06/12 03:19:25;;;;;;;4.80;1.77;;;;;;;16.96;52.78;101895.41;4920121;28;97079;-48
2022/06/12 03:22:15;;;;;;;3.33;1.37;;;;;;;16.89;53.64;101896.66;4921700;28;100500;-48
2022/06/12 03:24:59;;;;;;;5.10;1.37;;;;;;;16.87;53.02;101901.97;4918579;28;101599;-48
2022/06/12 03:27:49;;;;;;;6.10;1.87;;;;;;;16.86;53.86;101897.66;4919615;28;97126;-47
2022/06/12 03:30:31;;;;;;;3.50;1.57;;;;;;;16.84;53.65;101893.91;4920254;28;96861;-47
2022/06/12 03:33:28;;;;;;;2.27;1.23;;;;;;;16.82;53.83;101896.44;4916945;28;102040;-47
2022/06/12 03:36:06;;;;;;;3.83;1.67;;;;;;;16.83;53.25;101897.94;4927096;22;101589;-52
2022/06/12 03:38:53;;;;;;;10.03;2.17;;;;;;;16.85;53.94;101903.75;4914155;28;97223;-51
2022/06/12 03:41:21;;;;;;;4.30;1.20;;;;;;;16.86;53.26;101902.50;4925517;28;97002;-51
2022/06/12 03:43:59;;;;;;;2.60;1.63;;;;;;;16.84;53.66;101905.03;4919827;28;99180;-51
2022/06/12 03:47:10;;;;;;;8.30;2.37;;;;;;;16.85;54.06;101900.97;4901314;28;98389;-51
2022/06/12 03:49:52;;;;;;;4.60;1.50;;;;;;;16.86;53.17;101905.28;4904227;28;97033;-51
2022/06/12 03:53:19;;;;;;;5.57;1.63;;;;;;;16.85;54.24;101920.41;4899427;28;97659;-51
2022/06/12 03:59:01;;;;;;;4.40;1.83;;;;;;;16.87;53.79;101901.22;4898061;28;100218;-49
2022/06/12 04:01:28;;;;;;;3.20;1.50;;;;;;;16.87;53.02;101901.22;4905526;28;97397;-49
2022/06/12 04:03:55;;;;;;;4.13;1.53;;;;;;;16.85;53.15;101901.72;4901579;28;97194;-50
2022/06/12 04:06:25;;;;;;;4.20;2.40;;;;;;;16.85;53.27;101903.75;4906672;28;97154;-52
2022/06/12 04:09:00;;;;;;;5.23;2.20;;;;;;;16.84;53.74;101894.63;4902295;28;97914;-49
2022/06/12 04:11:28;;;;;;;2.77;1.87;;;;;;;16.85;53.31;101912.09;4896619;28;97166;-49
2022/06/12 04:13:56;;;;;;;2.60;1.47;;;;;;;16.85;53.26;101914.88;4905353;28;96723;-51
2022/06/12 04:16:39;;;;;;;4.50;1.60;;;;;;;16.85;54.29;101909.31;4899978;28;97302;-51
2022/06/12 04:19:11;;;;;;;4.00;1.70;;;;;;;16.83;53.65;101909.06;4895354;28;101187;-51
2022/06/12 04:21:50;;;;;;;3.20;2.03;;;;;;;16.85;54.15;101909.31;4899897;28;98149;-52
2022/06/12 04:24:45;;;;;;;4.20;1.53;;;;;;;16.85;54.49;101910.06;4899306;28;97059;-51
2022/06/12 04:27:24;;;;;;;5.90;1.37;;;;;;;16.87;53.75;101910.31;4901428;28;102195;-51
2022/06/12 04:30:00;;;;;;;3.20;1.80;;;;;;;16.88;54.01;101902.75;4914637;28;100379;-49
2022/06/12 04:32:27;;;;;;;3.60;1.60;;;;;;;16.90;53.84;101908.56;4902125;28;97091;-49
2022/06/12 04:34:53;;;;;;;9.67;2.00;;;;;;;16.93;53.94;101905.50;4906796;28;97618;-49
2022/06/12 04:37:23;;;;;;;3.90;1.50;;;;;;;16.97;54.16;101911.56;4904487;28;98615;-49
2022/06/12 04:39:50;;;;;;;6.87;2.13;;;;;;;16.99;53.99;101905.53;4905352;28;97681;-49
2022/06/12 04:42:19;;;;;;;3.63;1.50;;;;;;;16.99;54.07;101900.69;4907500;28;96979;-49
2022/06/12 04:44:45;;;;;;;3.10;1.90;;;;;;;17.00;54.02;101905.00;4903640;28;97127;-49
2022/06/12 04:47:17;;;;;;;4.47;1.70;;;;;;;17.04;54.34;101904.75;4904934;28;97672;-50
2022/06/12 04:49:43;;;;;;;4.40;1.67;;;;;;;17.05;53.86;101909.06;4913905;28;98601;-50
2022/06/12 04:52:11;;;;;;;3.23;2.10;;;;;;;17.03;54.01;101894.91;4909486;28;96889;-50
2022/06/12 04:54:39;;;;;;;5.20;1.90;;;;;;;17.03;54.29;101901.22;4913388;28;97004;-50
2022/06/12 04:57:06;;;;;;;3.20;1.87;;;;;;;17.08;54.30;101903.22;4899819;28;97031;-53
2022/06/12 04:59:32;;;;;;;3.37;1.80;;;;;;;17.14;54.38;101903.22;4905254;28;101687;-50
2022/06/12 05:01:58;;;;;;;3.80;1.77;;;;;;;17.20;54.45;101901.97;4903776;28;97101;-50
2022/06/12 05:04:25;;;;;;;1.83;1.40;;;;;;;17.25;54.23;101906.72;4905767;28;97347;-50
2022/06/12 05:06:51;;;;;;;4.53;1.63;;;;;;;17.29;54.41;101903.72;4905280;28;97582;-50
2022/06/12 05:09:19;;;;;;;7.23;1.90;;;;;;;17.34;54.49;101896.63;4907423;28;97290;-52
2022/06/12 05:11:45;;;;;;;5.13;1.90;;;;;;;17.38;54.50;101894.34;4908855;28;97039;-51
2022/06/12 05:14:11;;;;;;;2.87;1.33;;;;;;;17.45;54.51;101896.59;4903036;28;97002;-51
2022/06/12 05:16:41;;;;;;;3.43;1.93;;;;;;;17.51;54.57;101900.91;4904721;28;97411;-51
2022/06/12 05:19:11;;;;;;;2.07;1.60;;;;;;;17.57;54.49;101898.09;4894295;28;97241;-51
2022/06/12 05:21:36;;;;;;;2.27;1.60;;;;;;;17.65;54.69;101916.53;4898504;28;97482;-52
2022/06/12 05:24:03;;;;;;;4.67;1.70;;;;;;;17.72;54.49;101904.88;4898561;28;97423;-51
2022/06/12 05:26:33;;;;;;;4.70;1.60;;;;;;;17.80;54.48;101899.53;4907994;28;96905;-51
2022/06/12 05:29:00;;;;;;;5.10;1.90;;;;;;;17.87;54.35;101899.75;4901861;28;100401;-50
2022/06/12 05:31:25;;;;;;;2.10;1.30;;;;;;;17.95;54.48;101903.50;4907932;28;97029;-51
2022/06/12 05:33:51;;;;;;;3.30;1.67;;;;;;;18.06;54.39;101899.16;4902452;28;97020;-51
2022/06/12 05:36:17;;;;;;;5.67;2.07;;;;;;;18.14;54.18;101903.69;4902330;28;97063;-52
2022/06/12 05:38:44;;;;;;;4.10;1.47;;;;;;;18.25;54.00;101906.41;4904297;28;97002;-52
2022/06/12 05:41:10;;;;;;;7.80;1.63;;;;;;;18.34;53.53;101902.53;4901128;28;96714;-51
2022/06/12 05:43:35;;;;;;;2.80;1.50;;;;;;;18.42;53.52;101918.19;4903587;28;97417;-51
2022/06/12 05:46:01;;;;;;;7.70;1.87;;;;;;;18.52;53.51;101907.53;4895009;28;98500;-51
2022/06/12 05:48:27;;;;;;;5.20;1.93;;;;;;;18.60;53.60;101906.44;4902739;28;96779;-51
2022/06/12 05:50:56;;;;;;;5.10;2.30;;;;;;;18.66;53.36;101900.81;4904525;28;97195;-52
2022/06/12 05:53:24;;;;;;;5.63;1.90;;;;;;;18.74;53.38;101906.63;4904524;28;97170;-51
2022/06/12 05:55:51;;;;;;;4.40;1.57;;;;;;;18.81;53.38;101901.22;4899946;28;100722;-51
2022/06/12 05:58:18;;;;;;;5.23;1.80;;;;;;;18.90;53.33;101911.28;4900687;28;97544;-51
2022/06/12 06:00:44;;;;;;;2.30;1.63;;;;;;;18.99;53.40;101910.94;4903814;28;96785;-51
2022/06/12 06:03:10;;;;;;;5.63;1.73;;;;;;;19.07;53.25;101912.66;4899703;28;96947;-51
2022/06/12 06:05:38;;;;;;;3.83;1.23;;;;;;;19.15;52.84;101918.41;4903544;28;97466;-52
2022/06/12 06:08:03;;;;;;;5.70;1.87;;;;;;;19.23;52.57;101914.53;4900196;28;100243;-51
2022/06/12 06:10:29;;;;;;;3.30;1.40;;;;;;;19.31;52.63;101923.81;4904129;28;96976;-51
2022/06/12 06:12:55;;;;;;;8.60;1.60;;;;;;;19.38;52.31;101917.69;4902082;28;96987;-51
2022/06/12 06:15:21;;;;;;;2.80;1.50;;;;;;;19.45;52.21;101916.38;4897900;28;97918;-51
2022/06/12 06:17:47;;;;;;;5.20;1.80;;;;;;;19.52;51.98;101921.38;4899106;28;97111;-52
2022/06/12 06:20:16;;;;;;;4.57;1.60;;;;;;;19.58;51.89;101915.72;4896370;28;97559;-51
2022/06/12 06:22:41;;;;;;;6.17;2.43;;;;;;;19.64;51.87;101919.94;4898506;28;96879;-51
2022/06/12 06:25:08;;;;;;;5.63;2.10;;;;;;;19.72;51.98;101923.69;4900735;28;98209;-51
2022/06/12 06:27:33;;;;;;;6.13;2.00;;;;;;;19.80;52.09;101924.59;4903564;28;98454;-52
2022/06/12 06:29:59;;;;;;;6.07;1.60;;;;;;;19.87;51.83;101924.00;4901021;28;97029;-51
2022/06/12 06:32:25;;;;;;;3.50;1.60;;;;;;;19.95;52.03;101927.72;4903297;28;97300;-51
2022/06/12 06:34:50;;;;;;;3.57;1.70;;;;;;;20.03;51.92;101927.84;4905496;28;97657;-51
2022/06/12 06:37:15;;;;;;;3.87;1.70;;;;;;;20.06;51.93;101919.19;4903438;28;97953;-55
2022/06/12 06:39:42;;;;;;;2.03;1.30;;;;;;;20.15;51.73;101920.84;4901136;28;97059;-51
2022/06/12 06:42:08;;;;;;;6.80;2.10;;;;;;;20.22;51.88;101919.50;4899405;28;96941;-51
2022/06/12 06:47:18;;;;;;;4.80;1.70;;;;;;;20.37;51.58;101920.56;4899583;28;100184;-51
2022/06/12 06:49:43;;;;;;;3.43;1.70;;;;;;;20.46;51.48;101919.41;4906062;28;97688;-51
2022/06/12 06:52:08;;;;;;;1.73;1.20;;;;;;;20.53;51.47;101910.44;4910810;28;97470;-51
2022/06/12 06:54:34;;;;;;;5.30;1.90;;;;;;;20.63;51.41;101912.28;4903555;28;98160;-51
2022/06/12 06:57:00;;;;;;;3.60;1.73;;;;;;;20.70;51.13;101917.28;4902042;28;96821;-52
2022/06/12 06:59:26;;;;;;;5.83;1.40;;;;;;;20.78;50.95;101912.56;4902364;28;97096;-51
2022/06/12 07:01:52;;;;;;;3.90;1.33;;;;;;;20.86;50.93;101919.03;4901326;28;97339;-51
2022/06/12 07:04:17;;;;;;;3.00;1.57;;;;;;;20.96;50.91;101910.22;4891568;28;99008;-51
2022/06/12 07:06:43;;;;;;;6.30;1.70;;;;;;;21.04;50.65;101919.53;4903260;28;97562;-51
2022/06/12 07:09:08;;;;;;;2.90;1.30;;;;;;;21.07;50.32;101913.63;4899863;28;97239;-50
2022/06/12 07:11:34;;;;;;;4.63;1.70;;;;;;;21.10;50.24;101912.53;4903552;28;97391;-50
2022/06/12 07:14:00;;;;;;;4.40;1.60;;;;;;;21.17;50.15;101906.31;4899979;28;97706;-51
2022/06/12 07:16:28;;;;;;;7.60;2.07;;;;;;;21.23;50.21;101906.97;4907929;28;97224;-51
2022/06/12 07:18:53;;;;;;;4.20;2.00;;;;;;;21.33;50.04;101913.66;4897320;28;97389;-51
2022/06/12 07:21:19;;;;;;;5.80;1.40;;;;;;;21.44;49.84;101905.06;4904436;28;96822;-51
2022/06/12 07:23:45;;;;;;;5.17;2.10;;;;;;;21.54;49.76;101908.16;4900697;28;97442;-51
2022/06/12 07:26:25;;;;;;;6.30;1.50;;;;;;;21.65;49.29;101903.09;4902841;28;100502;-51
2022/06/12 07:28:51;;;;;;;5.20;2.03;;;;;;;21.73;49.50;101903.22;4917826;28;96782;-53
2022/06/12 07:31:17;;;;;;;5.90;1.63;;;;;;;21.81;49.18;101901.25;4904271;28;96946;-50
2022/06/12 07:33:44;;;;;;;6.17;2.23;;;;;;;21.91;49.21;101904.41;4901845;28;98330;-51
2022/06/12 07:36:11;;;;;;;6.53;1.57;;;;;;;22.02;49.21;101902.09;4899441;28;97147;-50
2022/06/12 07:38:37;;;;;;;3.00;1.43;;;;;;;22.11;49.08;101903.69;4908411;28;97382;-51
2022/06/12 07:41:06;;;;;;;6.03;1.73;;;;;;;22.19;48.71;101896.88;4904140;28;97568;-52
2022/06/12 07:43:34;;;;;;;3.30;1.70;;;;;;;22.28;48.62;101890.81;4907593;28;97320;-51
2022/06/12 07:46:02;;;;;;;4.17;1.73;;;;;;;22.40;48.46;101896.91;4903471;28;101687;-50
2022/06/12 07:48:28;;;;;;;6.27;1.30;;;;;;;22.47;48.09;101898.28;4901133;28;97117;-51
2022/06/12 07:50:54;;;;;;;5.13;1.57;;;;;;;22.56;47.93;101906.25;4905941;28;97081;-51
2022/06/12 07:53:21;;;;;;;3.03;1.13;;;;;;;22.65;47.65;101908.59;4905366;28;97728;-50
2022/06/12 07:55:48;;;;;;;6.77;2.10;;;;;;;22.68;47.36;101905.44;4902750;28;97183;-51
2022/06/12 07:58:14;;;;;;;5.03;1.23;;;;;;;22.75;47.18;101898.41;4906721;28;97025;-50
2022/06/12 08:00:40;;;;;;;4.07;1.60;;;;;;;22.78;46.89;101897.31;4905608;28;96947;-51
2022/06/12 08:03:06;;;;;;;4.17;1.47;;;;;;;22.85;46.51;101897.34;4902867;28;97452;-50
2022/06/12 08:05:32;;;;;;;5.60;1.17;;;;;;;22.91;46.21;101900.78;4905239;28;98421;-51
2022/06/12 08:07:58;;;;;;;3.23;1.37;;;;;;;22.96;45.79;101902.69;4902770;28;97230;-50
2022/06/12 08:10:25;;;;;;;3.63;1.17;;;;;;;23.06;45.70;101914.19;4910698;28;97331;-51
2022/06/12 08:12:50;;;;;;;3.20;1.03;;;;;;;23.13;45.34;101910.66;4908175;28;97602;-51
2022/06/12 08:15:24;;;;;;;2.10;0.87;;;;;;;23.22;44.57;101912.25;4906773;28;97063;-52
2022/06/12 08:17:49;;;;;;;6.07;1.30;;;;;;;23.31;44.97;101906.13;4899893;28;97024;-51
2022/06/12 08:20:25;;;;;;;1.60;1.10;;;;;;;23.40;44.68;101900.78;4890209;28;99027;-51
2022/06/12 08:22:53;;;;;;;4.83;1.40;;;;;;;23.46;44.29;101903.47;4905319;28;97645;-51
2022/06/12 08:25:19;;;;;;;2.40;1.07;;;;;;;23.56;44.14;101912.88;4909048;28;103278;-51
2022/06/12 08:27:45;;;;;;;3.53;1.00;;;;;;;23.64;44.29;101914.41;4907712;28;97086;-50
2022/06/12 08:30:11;;;;;;;2.60;1.20;;;;;;;23.71;44.07;101910.91;4902146;28;97257;-51
2022/06/12 08:32:37;;;;;;;2.57;1.50;;;;;;;23.78;43.57;101915.06;4906645;28;98165;-51
2022/06/12 08:35:11;;;;;;;3.57;1.03;;;;;;;23.87;42.98;101908.16;4904789;28;97279;-51
2022/06/12 08:37:39;;;;;;;4.80;1.10;;;;;;;23.94;43.37;101915.88;4903674;28;97370;-50
2022/06/12 08:40:13;;;;;;;2.80;1.03;;;;;;;24.00;42.77;101916.47;4905235;28;97315;-51
2022/06/12 08:42:54;;;;;;;3.53;1.30;;;;;;;24.08;41.83;101911.63;4906871;28;97872;-51
2022/06/12 08:45:23;;;;;;;2.53;1.07;;;;;;;24.18;42.63;101913.34;4905553;28;102774;-50
2022/06/12 08:47:55;;;;;;;3.13;1.03;;;;;;;24.31;41.14;101907.56;4911962;28;97446;-50
2022/06/12 08:50:42;;;;;;;4.10;1.20;;;;;;;24.43;41.84;101902.34;4897264;28;96791;-50
2022/06/12 08:53:52;;;;;;;2.93;1.03;;;;;;;24.55;41.07;101906.31;4905555;28;103254;-51
2022/06/12 08:56:28;;;;;;;2.10;0.87;;;;;;;24.68;40.80;101902.59;4921053;28;100195;-51
2022/06/12 08:59:14;;;;;;;4.80;1.00;;;;;;;24.75;41.72;101905.41;4905953;28;97802;-51
2022/06/12 09:01:43;;;;;;;1.47;0.83;;;;;;;24.71;41.22;101907.06;4904484;28;104000;-50
2022/06/12 09:04:20;;;;;;;3.60;1.00;;;;;;;24.82;41.17;101901.84;4900914;28;100712;-51
2022/06/12 09:07:03;;;;;;;1.83;0.90;;;;;;;24.99;40.75;101901.28;4907006;28;100363;-54
2022/06/12 09:09:39;;;;;;;3.43;1.27;;;;;;;25.13;40.04;101897.72;4904578;28;96851;-51
2022/06/12 09:12:17;;;;;;;2.30;0.93;;;;;;;25.27;39.29;101893.38;4908609;28;97157;-50
2022/06/12 09:15:34;;;;;;;1.80;0.70;;;;;;;25.24;38.54;101888.88;4906666;28;98361;-51
2022/06/12 09:18:22;;;;;;;2.00;0.80;;;;;;;25.36;40.18;101880.03;4890489;28;102492;-51
2022/06/12 09:20:52;;;;;;;2.50;0.80;;;;;;;25.54;39.46;101876.03;4909629;28;97724;-50
2022/06/12 09:23:38;;;;;;;1.77;0.93;;;;;;;25.66;39.22;101877.91;4893153;28;97705;-51
2022/06/12 09:26:29;;;;;;;2.70;0.77;;;;;;;25.75;38.72;101877.28;4903937;28;101936;-51
2022/06/12 09:29:00;;;;;;;1.40;1.00;;;;;;;25.84;38.96;101879.50;4901850;28;96984;-51
2022/06/12 09:31:51;;;;;;;1.67;0.80;;;;;;;25.87;37.99;101880.44;4903139;28;97724;-51
2022/06/12 09:34:48;;;;;;;4.10;1.23;;;;;;;26.07;37.87;101873.75;4905827;28;96818;-51
2022/06/12 09:40:01;;;;;;;1.63;0.60;;;;;;;26.37;36.75;101870.78;4946041;28;98214;-47
2022/06/12 09:42:41;;;;;;;1.27;0.60;;;;;;;26.35;36.87;101862.13;4946767;28;97191;-47
2022/06/12 09:45:27;;;;;;;1.37;0.90;;;;;;;26.41;36.10;101865.47;4946873;28;97349;-47
2022/06/12 09:48:23;;;;;;;1.80;0.90;;;;;;;26.61;36.05;101867.22;4939328;28;100394;-48
2022/06/12 09:51:39;;;;;;;4.73;0.97;;;;;;;26.84;35.87;101857.81;4931802;28;103605;-46
2022/06/12 09:54:32;;;;;;;2.17;0.83;;;;;;;27.03;35.33;101855.94;4902745;28;97053;-47
2022/06/12 09:57:00;;;;;;;3.73;0.90;;;;;;;27.17;36.07;101853.56;4932208;28;96756;-47
2022/06/12 09:59:42;;;;;;;1.83;0.80;;;;;;;27.17;36.09;101862.03;4933521;28;102591;-46
2022/06/12 10:02:18;;;;;;;1.23;0.60;;;;;;;27.25;34.95;101857.03;4930594;28;100030;-47
2022/06/12 10:05:09;;;;;;;2.07;0.67;;;;;;;27.28;34.63;101856.63;4931567;28;97466;-48
2022/06/12 10:07:45;;;;;;;1.43;0.70;;;;;;;27.37;35.31;101841.09;4932267;28;97268;-47
2022/06/12 10:10:23;;;;;;;2.73;1.00;;;;;;;27.47;34.27;101847.59;4930903;28;101074;-47
2022/06/12 10:12:53;;;;;;;3.07;0.80;;;;;;;27.39;35.15;101847.66;4929546;28;100390;-47
2022/06/12 10:15:28;;;;;;;2.00;0.83;;;;;;;27.28;34.40;101831.19;4931014;28;96803;-47
2022/06/12 10:18:06;;;;;;;1.63;1.03;;;;;;;27.14;34.90;101832.09;4930508;28;98365;-48
2022/06/12 10:20:43;;;;;;;2.40;0.97;;;;;;;27.01;35.55;101836.00;4928834;28;97618;-47
2022/06/12 10:23:08;;;;;;;1.27;0.70;;;;;;;27.11;35.65;101844.56;4929752;28;97181;-47
2022/06/12 10:25:38;;;;;;;3.37;1.00;;;;;;;27.22;35.37;101842.00;4932844;28;97303;-48
2022/06/12 10:28:04;;;;;;;1.67;1.00;;;;;;;27.36;35.02;101833.97;4929124;28;97092;-47
2022/06/12 10:30:41;;;;;;;3.57;0.90;;;;;;;27.31;34.00;101826.44;4930530;28;97382;-47
2022/06/12 10:33:18;;;;;;;2.20;1.20;;;;;;;27.33;34.31;101816.06;4930779;28;101658;-48
2022/06/12 10:35:50;;;;;;;1.60;1.00;;;;;;;27.27;34.19;101814.81;4927420;28;97202;-47
2022/06/12 10:38:17;;;;;;;2.63;1.03;;;;;;;27.25;34.93;101814.66;4928916;28;98239;-48
2022/06/12 10:41:23;;;;;;;1.73;0.80;;;;;;;27.33;33.41;101804.75;4929241;28;96811;-48
2022/06/12 10:43:51;;;;;;;1.83;1.00;;;;;;;27.48;34.80;101803.84;4929790;28;101098;-48
2022/06/12 10:46:31;;;;;;;1.23;0.60;;;;;;;27.63;33.71;101797.97;4929447;28;96772;-49
2022/06/12 10:49:01;;;;;;;2.83;1.00;;;;;;;27.74;33.90;101811.59;4927873;28;97029;-47
2022/06/12 10:51:40;;;;;;;1.00;0.70;;;;;;;27.83;32.78;101810.16;4931923;28;98906;-49
2022/06/12 10:54:12;;;;;;;1.10;0.57;;;;;;;27.83;32.83;101804.50;4920651;28;97856;-48
2022/06/12 10:56:56;;;;;;;2.23;0.80;;;;;;;27.88;33.63;101792.94;4927719;28;96858;-47
2022/06/12 10:59:40;;;;;;;1.83;0.60;;;;;;;27.89;33.59;101790.84;4928948;28;97077;-48
2022/06/12 11:02:31;;;;;;;1.27;0.67;;;;;;;27.80;32.53;101797.19;4930666;28;102010;-48
2022/06/12 11:05:02;;;;;;;1.77;0.67;;;;;;;27.77;32.93;101795.53;4931861;28;101636;-48
2022/06/12 11:07:43;;;;;;;2.40;0.77;;;;;;;27.76;32.92;101789.13;4916726;28;98029;-47
2022/06/12 11:10:24;;;;;;;1.00;0.60;;;;;;;27.78;32.89;101792.13;4926317;28;97442;-48
2022/06/12 11:13:00;;;;;;;2.43;0.57;;;;;;;27.81;31.62;101790.94;4927010;28;97757;-47
2022/06/12 11:15:29;;;;;;;1.47;0.93;;;;;;;27.85;32.76;101779.22;4918119;28;98867;-48
2022/06/12 11:18:14;;;;;;;2.37;0.47;;;;;;;27.96;32.47;101776.56;4926765;28;96768;-48
2022/06/12 11:21:17;;;;;;;1.17;0.80;;;;;;;27.95;31.04;101780.75;4929530;28;97852;-47
2022/06/12 11:24:06;;;;;;;3.33;0.77;;;;;;;27.76;31.48;101777.09;4929482;28;100494;-47
2022/06/12 11:27:04;;;;;;;1.90;0.80;;;;;;;27.83;31.98;101776.97;4926534;28;101638;-48
2022/06/12 11:29:51;;;;;;;0.90;0.70;;;;;;;28.01;31.69;101775.59;4921345;28;97317;-48
2022/06/12 11:32:30;;;;;;;1.40;0.90;;;;;;;28.11;32.46;101776.38;4929060;28;97765;-47
2022/06/12 11:35:26;;;;;;;2.50;1.00;;;;;;;28.20;31.38;101775.66;4925938;28;103550;-47
2022/06/12 11:38:10;;;;;;;2.80;1.23;;;;;;;28.35;31.97;101766.19;4926480;28;102966;-47
2022/06/12 11:40:42;;;;;;;2.97;1.03;;;;;;;28.47;31.21;101767.09;4923968;28;97160;-48
2022/06/12 11:43:11;;;;;;;1.43;0.60;;;;;;;28.57;31.44;101764.31;4929074;28;96903;-49
2022/06/12 11:45:57;;;;;;;1.70;0.70;;;;;;;28.61;30.49;101759.72;4934949;28;97521;-48
2022/06/12 11:48:31;;;;;;;2.87;0.90;;;;;;;28.67;30.81;101759.41;4929142;28;101401;-48
2022/06/12 11:51:08;;;;;;;0.70;0.57;;;;;;;28.84;30.20;101762.88;4936745;28;97229;-48
2022/06/12 11:54:15;;;;;;;1.97;0.60;;;;;;;29.01;30.23;101759.13;4927277;28;97030;-48
2022/06/12 11:56:55;;;;;;;0.80;0.50;;;;;;;29.02;29.37;101760.66;4929261;28;102145;-47
2022/06/12 11:59:45;;;;;;;1.17;0.57;;;;;;;29.04;29.77;101763.63;4924407;28;101418;-48
2022/06/12 12:02:28;;;;;;;1.73;0.70;;;;;;;28.86;30.02;101765.84;4927480;28;96990;-48
2022/06/12 12:05:22;;;;;;;0.70;0.50;;;;;;;28.78;29.84;101750.34;4927560;28;97011;-48
2022/06/12 12:08:31;;;;;;;1.50;0.67;;;;;;;28.77;29.81;101748.84;4933638;28;101847;-47
2022/06/12 12:11:05;;;;;;;2.97;0.67;;;;;;;28.99;29.96;101753.31;4933230;28;101711;-47